Flight Track Log - Related Links

Times and Time Zones

All times are in EST time to prevent confusion due to time zone crossing. See the SLQ704 flight status page for this flight to view local times or setup timezone preferences in your user account.

Time Position Orientation Groundspeed Altitude Reporting Facility
EST Latitude Longitude Course Direction KTS MPH feet Rate Location/Type
Fri 09:58:41 AM 49.1667 -123.1833 206° Southwest 70 81 600  Level Vancouver Center
Fri 09:59:41 AM 49.1500 -123.2167 233° Southwest 100 115 1,600 1,000 Climbing Vancouver Center
Fri 10:00:41 AM 49.1167 -123.2333 198° South 110 127 2,600 950 Climbing Vancouver Center
Fri 10:01:41 AM 49.0833 -123.2333 180° South 110 127 3,500 700 Climbing Vancouver Center
Fri 10:02:41 AM 49.0667 -123.2333 180° South 110 127 4,000 250 Climbing Vancouver Center
Fri 10:03:00 AM 48.9525 -123.2148 206° Southwest  Level FlightAware Approximate
Fri 10:03:41 AM 49.0167 -123.2667 204° Southwest 140 161 4,000  Level Vancouver Center
Fri 10:04:00 AM 48.9143 -123.2435 206° Southwest  Level FlightAware Approximate
Fri 10:04:41 AM 48.9833 -123.2333 147° Southeast 160 184 4,000  Level Vancouver Center
Fri 10:05:41 AM 48.9333 -123.2333 180° South 160 184 4,000  Level Vancouver Center
Fri 10:06:41 AM 48.8833 -123.2167 168° South 160 184 4,000  Level Vancouver Center
Fri 10:07:41 AM 48.8500 -123.1833 147° Southeast 160 184 4,000  Level Vancouver Center
Fri 10:08:41 AM 48.8000 -123.1833 180° South 160 184 4,000  Level Vancouver Center
Fri 10:09:41 AM 48.7500 -123.1667 168° South 160 184 4,000  Level Vancouver Center
Fri 10:10:41 AM 48.7167 -123.1500 162° South 160 184 4,000  Level Vancouver Center
Fri 10:11:41 AM 48.6667 -123.1500 180° South 160 184 4,000 -250 Level Vancouver Center
Fri 10:12:41 AM 48.6167 -123.1667 192° South 180 207 3,500 -600 Descending Vancouver Center
Fri 10:13:41 AM 48.5833 -123.2167 225° Southwest 190 219 2,800 -800 Descending Vancouver Center
Fri 10:14:41 AM 48.6000 -123.3000 287° West 190 219 1,900 -950 Descending Vancouver Center
Fri 10:15:41 AM 48.6167 -123.3500 297° West 170 196 900 -750 Descending Vancouver Center
Fri 10:16:41 AM 48.6167 -123.4000 270° West 100 115 400 -400 Descending Vancouver Center
Fri 10:17:41 AM 48.6333 -123.4167 327° Northwest 70 81 100 -300 Descending Vancouver Center

Login

Don't have an account? Register now (free) for customized features, flight alerts, and more!